sensor_id;sensor_type;location;lat;lon;timestamp;pressure;altitude;pressure_sealevel;temperature;humidity
37078;BME280;22989;55.998;37.212;2023-03-22T00:01:20;-11298.94;;;-145.39;61.32
37078;BME280;22989;55.998;37.212;2023-03-22T00:03:47;-11298.94;;;-145.39;61.44
37078;BME280;22989;55.998;37.212;2023-03-22T00:06:14;-11298.94;;;-145.39;61.32
37078;BME280;22989;55.998;37.212;2023-03-22T00:08:41;-11298.94;;;-145.39;61.49
37078;BME280;22989;55.998;37.212;2023-03-22T00:11:07;-11298.94;;;-145.39;61.62
37078;BME280;22989;55.998;37.212;2023-03-22T00:13:34;-11298.94;;;-145.39;61.54
37078;BME280;22989;55.998;37.212;2023-03-22T00:16:02;-11298.94;;;-145.39;61.76
37078;BME280;22989;55.998;37.212;2023-03-22T00:18:28;-11298.94;;;-145.39;61.63
37078;BME280;22989;55.998;37.212;2023-03-22T00:20:57;-11298.94;;;-145.39;61.68
37078;BME280;22989;55.998;37.212;2023-03-22T00:23:23;-11298.94;;;-145.39;61.78
37078;BME280;22989;55.998;37.212;2023-03-22T00:25:50;-11298.94;;;-145.39;61.64
37078;BME280;22989;55.998;37.212;2023-03-22T00:28:16;-11298.94;;;-145.39;61.75
37078;BME280;22989;55.998;37.212;2023-03-22T00:30:50;-11298.94;;;-145.39;61.73
37078;BME280;22989;55.998;37.212;2023-03-22T00:33:16;-11298.94;;;-145.39;61.87
37078;BME280;22989;55.998;37.212;2023-03-22T00:35:51;-11298.94;;;-145.39;61.74
37078;BME280;22989;55.998;37.212;2023-03-22T00:38:18;-11298.94;;;-145.39;61.72
37078;BME280;22989;55.998;37.212;2023-03-22T00:40:43;-11298.94;;;-145.39;61.80
37078;BME280;22989;55.998;37.212;2023-03-22T00:43:09;-11298.94;;;-145.39;61.97
37078;BME280;22989;55.998;37.212;2023-03-22T00:45:35;-11298.94;;;-145.39;62.05
37078;BME280;22989;55.998;37.212;2023-03-22T00:48:03;-11298.94;;;-145.39;62.12
37078;BME280;22989;55.998;37.212;2023-03-22T00:50:28;-11298.94;;;-145.39;62.24
37078;BME280;22989;55.998;37.212;2023-03-22T00:52:54;-11298.94;;;-145.39;62.06
37078;BME280;22989;55.998;37.212;2023-03-22T00:55:20;-11298.94;;;-145.39;62.15
37078;BME280;22989;55.998;37.212;2023-03-22T00:57:45;-11298.94;;;-145.39;62.16
37078;BME280;22989;55.998;37.212;2023-03-22T01:00:11;-11298.94;;;-145.39;62.09
37078;BME280;22989;55.998;37.212;2023-03-22T01:02:41;-11298.94;;;-145.39;62.09
37078;BME280;22989;55.998;37.212;2023-03-22T01:05:10;-11298.94;;;-145.39;61.89
37078;BME280;22989;55.998;37.212;2023-03-22T01:07:42;-11298.94;;;-145.39;61.80
37078;BME280;22989;55.998;37.212;2023-03-22T01:10:10;-11298.94;;;-145.39;61.83
37078;BME280;22989;55.998;37.212;2023-03-22T01:12:37;-11298.94;;;-145.39;61.70
37078;BME280;22989;55.998;37.212;2023-03-22T01:15:04;-11298.94;;;-145.39;61.73
37078;BME280;22989;55.998;37.212;2023-03-22T01:17:30;-11298.94;;;-145.39;61.56
37078;BME280;22989;55.998;37.212;2023-03-22T01:19:56;-11298.94;;;-145.39;61.50
37078;BME280;22989;55.998;37.212;2023-03-22T01:22:22;-11298.94;;;-145.39;61.51
37078;BME280;22989;55.998;37.212;2023-03-22T01:24:48;-11298.94;;;-145.39;61.51
37078;BME280;22989;55.998;37.212;2023-03-22T01:27:15;-11298.94;;;-145.39;61.46
37078;BME280;22989;55.998;37.212;2023-03-22T01:29:40;-11298.94;;;-145.39;61.52
37078;BME280;22989;55.998;37.212;2023-03-22T01:32:06;-11298.94;;;-145.39;61.47
37078;BME280;22989;55.998;37.212;2023-03-22T01:34:32;-11298.94;;;-145.39;61.29
37078;BME280;22989;55.998;37.212;2023-03-22T01:36:59;-11298.94;;;-145.39;61.08
37078;BME280;22989;55.998;37.212;2023-03-22T01:39:25;-11298.94;;;-145.39;61.12
37078;BME280;22989;55.998;37.212;2023-03-22T01:41:55;-11298.94;;;-145.39;61.05
37078;BME280;22989;55.998;37.212;2023-03-22T01:44:22;-11298.94;;;-145.39;61.05
37078;BME280;22989;55.998;37.212;2023-03-22T01:46:50;-11298.94;;;-145.39;61.08
37078;BME280;22989;55.998;37.212;2023-03-22T01:49:24;-11298.94;;;-145.39;60.91
37078;BME280;22989;55.998;37.212;2023-03-22T01:51:54;-11298.94;;;-145.39;60.81
37078;BME280;22989;55.998;37.212;2023-03-22T01:57:15;-11298.94;;;-145.39;60.70
37078;BME280;22989;55.998;37.212;2023-03-22T01:59:41;-11298.94;;;-145.39;60.62
37078;BME280;22989;55.998;37.212;2023-03-22T02:02:16;-11298.94;;;-145.39;60.49
37078;BME280;22989;55.998;37.212;2023-03-22T02:04:56;-11298.94;;;-145.39;60.44
37078;BME280;22989;55.998;37.212;2023-03-22T02:07:25;-11298.94;;;-145.39;60.46
37078;BME280;22989;55.998;37.212;2023-03-22T02:09:52;-11298.94;;;-145.39;60.42
37078;BME280;22989;55.998;37.212;2023-03-22T02:15:26;-11298.94;;;-145.39;60.42
37078;BME280;22989;55.998;37.212;2023-03-22T02:18:20;-11298.94;;;-145.39;60.32
37078;BME280;22989;55.998;37.212;2023-03-22T02:21:34;-11298.94;;;-145.39;60.22
37078;BME280;22989;55.998;37.212;2023-03-22T02:24:29;-11298.94;;;-145.39;60.23
37078;BME280;22989;55.998;37.212;2023-03-22T02:44:05;-11298.94;;;-145.39;59.62
37078;BME280;22989;55.998;37.212;2023-03-22T02:49:07;-11298.94;;;-145.39;59.25
37078;BME280;22989;55.998;37.212;2023-03-22T02:51:45;-11298.94;;;-145.39;59.34
37078;BME280;22989;55.998;37.212;2023-03-22T02:54:22;-11298.94;;;-145.39;59.26
37078;BME280;22989;55.998;37.212;2023-03-22T02:57:04;-11298.94;;;-145.39;59.16
37078;BME280;22989;55.998;37.212;2023-03-22T02:59:35;-11298.94;;;-145.39;59.23
37078;BME280;22989;55.998;37.212;2023-03-22T03:02:04;-11298.94;;;-145.39;59.12
37078;BME280;22989;55.998;37.212;2023-03-22T03:04:37;-11298.94;;;-145.39;58.99
37078;BME280;22989;55.998;37.212;2023-03-22T03:07:07;-11298.94;;;-145.39;59.07
37078;BME280;22989;55.998;37.212;2023-03-22T03:09:35;-11298.94;;;-145.39;59.11
37078;BME280;22989;55.998;37.212;2023-03-22T03:12:01;-11298.94;;;-145.39;59.05
37078;BME280;22989;55.998;37.212;2023-03-22T03:14:30;-11298.94;;;-145.39;58.94
37078;BME280;22989;55.998;37.212;2023-03-22T03:19:47;-11298.94;;;-145.39;58.97
37078;BME280;22989;55.998;37.212;2023-03-22T03:27:48;-11298.94;;;-145.39;59.31
37078;BME280;22989;55.998;37.212;2023-03-22T03:30:19;-11298.94;;;-145.39;59.46
37078;BME280;22989;55.998;37.212;2023-03-22T03:32:53;-11298.94;;;-145.39;59.35
37078;BME280;22989;55.998;37.212;2023-03-22T03:35:25;-11298.94;;;-145.39;59.34
37078;BME280;22989;55.998;37.212;2023-03-22T03:37:56;-11298.94;;;-145.39;59.22
37078;BME280;22989;55.998;37.212;2023-03-22T03:40:29;-11298.94;;;-145.39;59.16
37078;BME280;22989;55.998;37.212;2023-03-22T03:42:59;-11298.94;;;-145.39;59.01
37078;BME280;22989;55.998;37.212;2023-03-22T03:45:26;-11298.94;;;-145.39;59.01
37078;BME280;22989;55.998;37.212;2023-03-22T03:47:56;-11298.94;;;-145.39;59.12
37078;BME280;22989;55.998;37.212;2023-03-22T03:50:23;-11298.94;;;-145.39;58.87
37078;BME280;22989;55.998;37.212;2023-03-22T03:52:53;-11298.94;;;-145.39;58.94
37078;BME280;22989;55.998;37.212;2023-03-22T03:55:20;-11298.94;;;-145.39;58.77
37078;BME280;22989;55.998;37.212;2023-03-22T03:57:46;-11298.94;;;-145.39;58.95
37078;BME280;22989;55.998;37.212;2023-03-22T04:00:13;-11298.94;;;-145.39;58.68
37078;BME280;22989;55.998;37.212;2023-03-22T04:02:43;-11298.94;;;-145.39;58.74
37078;BME280;22989;55.998;37.212;2023-03-22T04:05:20;-11298.94;;;-145.39;58.82
37078;BME280;22989;55.998;37.212;2023-03-22T04:07:46;-11298.94;;;-145.39;58.90
37078;BME280;22989;55.998;37.212;2023-03-22T04:10:12;-11298.94;;;-145.39;58.86
37078;BME280;22989;55.998;37.212;2023-03-22T04:12:38;-11298.94;;;-145.39;59.04
37078;BME280;22989;55.998;37.212;2023-03-22T04:15:21;-11298.94;;;-145.39;59.01
37078;BME280;22989;55.998;37.212;2023-03-22T04:17:52;-11298.94;;;-145.39;58.87
37078;BME280;22989;55.998;37.212;2023-03-22T04:20:23;-11298.94;;;-145.39;58.69
37078;BME280;22989;55.998;37.212;2023-03-22T04:22:51;-11298.94;;;-145.39;58.41
37078;BME280;22989;55.998;37.212;2023-03-22T04:25:18;-11298.94;;;-145.39;58.37
37078;BME280;22989;55.998;37.212;2023-03-22T04:27:55;-11298.94;;;-145.39;57.93
37078;BME280;22989;55.998;37.212;2023-03-22T04:30:21;-11298.94;;;-145.39;57.62
37078;BME280;22989;55.998;37.212;2023-03-22T04:33:05;-11298.94;;;-145.39;57.71
37078;BME280;22989;55.998;37.212;2023-03-22T04:35:49;-11298.94;;;-145.39;57.56
37078;BME280;22989;55.998;37.212;2023-03-22T04:38:23;-11298.94;;;-145.39;57.63
37078;BME280;22989;55.998;37.212;2023-03-22T04:40:50;-11298.94;;;-145.39;57.43
37078;BME280;22989;55.998;37.212;2023-03-22T04:43:28;-11298.94;;;-145.39;57.02
37078;BME280;22989;55.998;37.212;2023-03-22T04:46:00;-11298.94;;;-145.39;56.37
37078;BME280;22989;55.998;37.212;2023-03-22T04:48:32;-11298.94;;;-145.39;55.63
37078;BME280;22989;55.998;37.212;2023-03-22T04:51:00;-11298.94;;;-145.39;54.89
37078;BME280;22989;55.998;37.212;2023-03-22T04:53:31;-11298.94;;;-145.39;54.54
37078;BME280;22989;55.998;37.212;2023-03-22T04:56:01;-11298.94;;;-145.39;54.29
37078;BME280;22989;55.998;37.212;2023-03-22T04:58:31;-11298.94;;;-145.39;53.89
37078;BME280;22989;55.998;37.212;2023-03-22T05:00:57;-11298.94;;;-145.39;53.72
37078;BME280;22989;55.998;37.212;2023-03-22T05:03:23;-11298.94;;;-145.39;53.54
37078;BME280;22989;55.998;37.212;2023-03-22T05:05:56;-11298.94;;;-145.39;53.23
37078;BME280;22989;55.998;37.212;2023-03-22T05:08:27;-11298.94;;;-145.39;52.96
37078;BME280;22989;55.998;37.212;2023-03-22T05:10:54;-11298.94;;;-145.39;52.97
37078;BME280;22989;55.998;37.212;2023-03-22T05:13:23;-11298.94;;;-145.39;52.86
37078;BME280;22989;55.998;37.212;2023-03-22T05:15:50;-11298.94;;;-145.39;52.89
37078;BME280;22989;55.998;37.212;2023-03-22T05:18:22;-11298.94;;;-145.39;52.83
37078;BME280;22989;55.998;37.212;2023-03-22T05:20:56;-11298.94;;;-145.39;53.07
37078;BME280;22989;55.998;37.212;2023-03-22T05:23:23;-11298.94;;;-145.39;52.81
37078;BME280;22989;55.998;37.212;2023-03-22T05:25:52;-11298.94;;;-145.39;52.71
37078;BME280;22989;55.998;37.212;2023-03-22T05:28:20;-11298.94;;;-145.39;52.73
37078;BME280;22989;55.998;37.212;2023-03-22T05:30:58;-11298.94;;;-145.39;52.72
37078;BME280;22989;55.998;37.212;2023-03-22T05:33:43;-11298.94;;;-145.39;52.61
37078;BME280;22989;55.998;37.212;2023-03-22T05:36:13;-11298.94;;;-145.39;52.41
37078;BME280;22989;55.998;37.212;2023-03-22T05:38:57;-11298.94;;;-145.39;52.05
37078;BME280;22989;55.998;37.212;2023-03-22T05:41:22;-11298.94;;;-145.39;51.72
37078;BME280;22989;55.998;37.212;2023-03-22T05:43:49;-11298.94;;;-145.39;51.44
37078;BME280;22989;55.998;37.212;2023-03-22T05:46:16;-11298.94;;;-145.39;51.14
37078;BME280;22989;55.998;37.212;2023-03-22T05:48:58;-11298.94;;;-145.39;50.92
37078;BME280;22989;55.998;37.212;2023-03-22T05:51:23;-11298.94;;;-145.39;50.64
37078;BME280;22989;55.998;37.212;2023-03-22T05:53:49;-11298.94;;;-145.39;50.29
37078;BME280;22989;55.998;37.212;2023-03-22T05:56:22;-11298.94;;;-145.39;49.95
37078;BME280;22989;55.998;37.212;2023-03-22T05:58:51;-11298.94;;;-145.39;49.65
37078;BME280;22989;55.998;37.212;2023-03-22T06:01:18;-11298.94;;;-145.39;49.21
37078;BME280;22989;55.998;37.212;2023-03-22T06:03:46;-11298.94;;;-145.39;48.81
37078;BME280;22989;55.998;37.212;2023-03-22T06:06:32;-11298.94;;;-145.39;47.96
37078;BME280;22989;55.998;37.212;2023-03-22T06:09:05;-11298.94;;;-145.39;47.61
37078;BME280;22989;55.998;37.212;2023-03-22T06:11:31;-11298.94;;;-145.39;47.10
37078;BME280;22989;55.998;37.212;2023-03-22T06:14:00;-11298.94;;;-145.39;46.58
37078;BME280;22989;55.998;37.212;2023-03-22T06:16:36;-11298.94;;;-145.39;46.12
37078;BME280;22989;55.998;37.212;2023-03-22T06:19:02;-11298.94;;;-145.39;45.20
37078;BME280;22989;55.998;37.212;2023-03-22T06:21:28;-11298.94;;;-145.39;44.15
37078;BME280;22989;55.998;37.212;2023-03-22T06:23:54;-11298.94;;;-145.39;43.26
37078;BME280;22989;55.998;37.212;2023-03-22T06:26:21;-11298.94;;;-145.39;40.76
37078;BME280;22989;55.998;37.212;2023-03-22T06:28:47;-11298.94;;;-145.39;37.42
37078;BME280;22989;55.998;37.212;2023-03-22T06:31:13;-11298.94;;;-145.39;34.98
37078;BME280;22989;55.998;37.212;2023-03-22T06:33:49;-11298.94;;;-145.39;33.46
37078;BME280;22989;55.998;37.212;2023-03-22T06:36:26;-11298.94;;;-145.39;33.61
37078;BME280;22989;55.998;37.212;2023-03-22T06:39:15;-11298.94;;;-145.39;34.54
37078;BME280;22989;55.998;37.212;2023-03-22T06:41:43;-11298.94;;;-145.39;34.32
37078;BME280;22989;55.998;37.212;2023-03-22T06:44:09;-11298.94;;;-145.39;34.81
37078;BME280;22989;55.998;37.212;2023-03-22T06:46:57;-11298.94;;;-145.39;35.60
37078;BME280;22989;55.998;37.212;2023-03-22T06:49:35;-11298.94;;;-145.39;36.16
37078;BME280;22989;55.998;37.212;2023-03-22T06:52:02;-11298.94;;;-145.39;35.19
37078;BME280;22989;55.998;37.212;2023-03-22T06:54:28;-11298.94;;;-145.39;34.35
37078;BME280;22989;55.998;37.212;2023-03-22T06:56:54;-11298.94;;;-145.39;33.82
37078;BME280;22989;55.998;37.212;2023-03-22T06:59:20;-11298.94;;;-145.39;34.43
37078;BME280;22989;55.998;37.212;2023-03-22T07:01:46;-11298.94;;;-145.39;35.23
37078;BME280;22989;55.998;37.212;2023-03-22T07:04:13;-11298.94;;;-145.39;34.52
37078;BME280;22989;55.998;37.212;2023-03-22T07:06:39;-11298.94;;;-145.39;33.03
37078;BME280;22989;55.998;37.212;2023-03-22T07:09:05;-11298.94;;;-145.39;31.56
37078;BME280;22989;55.998;37.212;2023-03-22T07:11:34;-11298.94;;;-145.39;30.26
37078;BME280;22989;55.998;37.212;2023-03-22T07:14:01;-11298.94;;;-145.39;29.35
37078;BME280;22989;55.998;37.212;2023-03-22T07:16:47;-11298.94;;;-145.39;29.02
37078;BME280;22989;55.998;37.212;2023-03-22T07:19:12;-11298.94;;;-145.39;29.82
37078;BME280;22989;55.998;37.212;2023-03-22T07:21:39;-11298.94;;;-145.39;30.88
37078;BME280;22989;55.998;37.212;2023-03-22T07:24:08;-11298.94;;;-145.39;32.27
37078;BME280;22989;55.998;37.212;2023-03-22T07:26:37;-11298.94;;;-145.39;33.63
37078;BME280;22989;55.998;37.212;2023-03-22T07:29:03;-11298.94;;;-145.39;34.39
37078;BME280;22989;55.998;37.212;2023-03-22T07:31:31;-11298.94;;;-145.39;35.23
37078;BME280;22989;55.998;37.212;2023-03-22T07:34:08;-11298.94;;;-145.39;35.48
37078;BME280;22989;55.998;37.212;2023-03-22T07:36:43;-11298.94;;;-145.39;35.70
37078;BME280;22989;55.998;37.212;2023-03-22T07:39:10;-11298.94;;;-145.39;35.73
37078;BME280;22989;55.998;37.212;2023-03-22T07:41:40;-11298.94;;;-145.39;35.89
37078;BME280;22989;55.998;37.212;2023-03-22T07:44:26;-11298.94;;;-145.39;36.43
37078;BME280;22989;55.998;37.212;2023-03-22T07:47:15;-11298.94;;;-145.39;36.99
37078;BME280;22989;55.998;37.212;2023-03-22T07:49:45;-11298.94;;;-145.39;37.25
37078;BME280;22989;55.998;37.212;2023-03-22T07:52:14;-11298.94;;;-145.39;37.28
37078;BME280;22989;55.998;37.212;2023-03-22T07:54:40;-11298.94;;;-145.39;37.07
37078;BME280;22989;55.998;37.212;2023-03-22T07:57:07;-11298.94;;;-145.39;36.78
37078;BME280;22989;55.998;37.212;2023-03-22T07:59:37;-11298.94;;;-145.39;36.36
37078;BME280;22989;55.998;37.212;2023-03-22T08:02:03;-11298.94;;;-145.39;36.31
37078;BME280;22989;55.998;37.212;2023-03-22T08:04:35;-11298.94;;;-145.39;36.47
37078;BME280;22989;55.998;37.212;2023-03-22T08:07:12;-11298.94;;;-145.39;36.67
37078;BME280;22989;55.998;37.212;2023-03-22T08:09:40;-11298.94;;;-145.39;36.67
37078;BME280;22989;55.998;37.212;2023-03-22T08:12:06;-11298.94;;;-145.39;36.89
37078;BME280;22989;55.998;37.212;2023-03-22T08:14:33;-11298.94;;;-145.39;36.73
37078;BME280;22989;55.998;37.212;2023-03-22T08:16:59;-11298.94;;;-145.39;37.25
37078;BME280;22989;55.998;37.212;2023-03-22T08:19:26;-11298.94;;;-145.39;37.49
37078;BME280;22989;55.998;37.212;2023-03-22T08:21:52;-11298.94;;;-145.39;37.90
37078;BME280;22989;55.998;37.212;2023-03-22T08:24:51;-11298.94;;;-145.39;38.12
37078;BME280;22989;55.998;37.212;2023-03-22T08:27:25;-11298.94;;;-145.39;38.48
37078;BME280;22989;55.998;37.212;2023-03-22T08:29:50;-11298.94;;;-145.39;38.69
37078;BME280;22989;55.998;37.212;2023-03-22T08:32:16;-11298.94;;;-145.39;39.18
37078;BME280;22989;55.998;37.212;2023-03-22T08:34:42;-11298.94;;;-145.39;39.43
37078;BME280;22989;55.998;37.212;2023-03-22T08:37:10;-11298.94;;;-145.39;40.02
37078;BME280;22989;55.998;37.212;2023-03-22T08:39:37;-11298.94;;;-145.39;40.45
37078;BME280;22989;55.998;37.212;2023-03-22T08:42:18;-11298.94;;;-145.39;40.77
37078;BME280;22989;55.998;37.212;2023-03-22T08:44:44;-11298.94;;;-145.39;40.82
37078;BME280;22989;55.998;37.212;2023-03-22T08:47:10;-11298.94;;;-145.39;41.04
37078;BME280;22989;55.998;37.212;2023-03-22T08:49:38;-11298.94;;;-145.39;41.54
37078;BME280;22989;55.998;37.212;2023-03-22T08:52:12;-11298.94;;;-145.39;41.47
37078;BME280;22989;55.998;37.212;2023-03-22T08:54:48;-11298.94;;;-145.39;41.63
37078;BME280;22989;55.998;37.212;2023-03-22T08:57:36;-11298.94;;;-145.39;41.48
37078;BME280;22989;55.998;37.212;2023-03-22T09:00:20;-11298.94;;;-145.39;41.38
37078;BME280;22989;55.998;37.212;2023-03-22T09:03:05;-11298.94;;;-145.39;41.63
37078;BME280;22989;55.998;37.212;2023-03-22T09:05:31;-11298.94;;;-145.39;41.78
37078;BME280;22989;55.998;37.212;2023-03-22T09:07:56;-11298.94;;;-145.39;41.94
37078;BME280;22989;55.998;37.212;2023-03-22T09:10:31;-11298.94;;;-145.39;41.93
37078;BME280;22989;55.998;37.212;2023-03-22T09:12:57;-11298.94;;;-145.39;41.95
37078;BME280;22989;55.998;37.212;2023-03-22T09:15:22;-11298.94;;;-145.39;41.71
37078;BME280;22989;55.998;37.212;2023-03-22T09:18:03;-11298.94;;;-145.39;41.53
37078;BME280;22989;55.998;37.212;2023-03-22T09:20:28;-11298.94;;;-145.39;41.47
37078;BME280;22989;55.998;37.212;2023-03-22T09:22:54;-11298.94;;;-145.39;41.50
37078;BME280;22989;55.998;37.212;2023-03-22T09:25:21;-11298.94;;;-145.39;41.63
37078;BME280;22989;55.998;37.212;2023-03-22T09:27:48;-11298.94;;;-145.39;41.70
37078;BME280;22989;55.998;37.212;2023-03-22T09:30:15;-11298.94;;;-145.39;41.51
37078;BME280;22989;55.998;37.212;2023-03-22T09:32:40;-11298.94;;;-145.39;41.66
37078;BME280;22989;55.998;37.212;2023-03-22T09:35:09;-11298.94;;;-145.39;41.66
37078;BME280;22989;55.998;37.212;2023-03-22T09:37:51;-11298.94;;;-145.39;41.43
37078;BME280;22989;55.998;37.212;2023-03-22T09:40:20;-11298.94;;;-145.39;41.52
37078;BME280;22989;55.998;37.212;2023-03-22T09:42:51;-11298.94;;;-145.39;41.24
37078;BME280;22989;55.998;37.212;2023-03-22T09:45:26;-11298.94;;;-145.39;40.89
37078;BME280;22989;55.998;37.212;2023-03-22T09:47:59;-11298.94;;;-145.39;40.87
37078;BME280;22989;55.998;37.212;2023-03-22T09:50:30;-11298.94;;;-145.39;40.69
37078;BME280;22989;55.998;37.212;2023-03-22T09:52:57;-11298.94;;;-145.39;40.57
37078;BME280;22989;55.998;37.212;2023-03-22T09:55:38;-11298.94;;;-145.39;40.69
37078;BME280;22989;55.998;37.212;2023-03-22T10:01:02;-11298.94;;;-145.39;40.14
37078;BME280;22989;55.998;37.212;2023-03-22T10:03:55;-11298.94;;;-145.39;39.95
37078;BME280;22989;55.998;37.212;2023-03-22T10:06:26;-11298.94;;;-145.39;39.83
37078;BME280;22989;55.998;37.212;2023-03-22T10:09:13;-11298.94;;;-145.39;39.60
37078;BME280;22989;55.998;37.212;2023-03-22T10:12:00;-11298.94;;;-145.39;39.46
37078;BME280;22989;55.998;37.212;2023-03-22T10:16:56;-11298.94;;;-145.39;39.57
37078;BME280;22989;55.998;37.212;2023-03-22T10:19:32;-11298.94;;;-145.39;39.32
37078;BME280;22989;55.998;37.212;2023-03-22T10:22:01;-11298.94;;;-145.39;39.18
37078;BME280;22989;55.998;37.212;2023-03-22T10:24:37;-11298.94;;;-145.39;39.10
37078;BME280;22989;55.998;37.212;2023-03-22T10:27:13;-11298.94;;;-145.39;39.02
37078;BME280;22989;55.998;37.212;2023-03-22T10:29:43;-11298.94;;;-145.39;38.91
37078;BME280;22989;55.998;37.212;2023-03-22T10:34:36;-11298.94;;;-145.39;38.66
37078;BME280;22989;55.998;37.212;2023-03-22T10:37:03;-11298.94;;;-145.39;38.39
37078;BME280;22989;55.998;37.212;2023-03-22T10:39:40;-11298.94;;;-145.39;38.08
37078;BME280;22989;55.998;37.212;2023-03-22T10:42:11;-11298.94;;;-145.39;37.76
37078;BME280;22989;55.998;37.212;2023-03-22T10:44:46;-11298.94;;;-145.39;37.50
37078;BME280;22989;55.998;37.212;2023-03-22T10:47:15;-11298.94;;;-145.39;37.39
37078;BME280;22989;55.998;37.212;2023-03-22T10:49:51;-11298.94;;;-145.39;36.97
37078;BME280;22989;55.998;37.212;2023-03-22T10:55:11;-11298.94;;;-145.39;37.03
37078;BME280;22989;55.998;37.212;2023-03-22T10:57:37;-11298.94;;;-145.39;37.08
37078;BME280;22989;55.998;37.212;2023-03-22T11:00:05;-11298.94;;;-145.39;37.18
37078;BME280;22989;55.998;37.212;2023-03-22T11:02:52;-11298.94;;;-145.39;37.21
37078;BME280;22989;55.998;37.212;2023-03-22T11:05:26;-11298.94;;;-145.39;37.23
37078;BME280;22989;55.998;37.212;2023-03-22T11:07:52;-11298.94;;;-145.39;37.48
37078;BME280;22989;55.998;37.212;2023-03-22T11:10:22;-11298.94;;;-145.39;37.69
37078;BME280;22989;55.998;37.212;2023-03-22T11:12:51;-11298.94;;;-145.39;37.34
37078;BME280;22989;55.998;37.212;2023-03-22T11:15:29;-11298.94;;;-145.39;36.63
37078;BME280;22989;55.998;37.212;2023-03-22T11:18:03;-11298.94;;;-145.39;36.14
37078;BME280;22989;55.998;37.212;2023-03-22T11:20:31;-11298.94;;;-145.39;35.86
37078;BME280;22989;55.998;37.212;2023-03-22T11:23:03;-11298.94;;;-145.39;35.77
37078;BME280;22989;55.998;37.212;2023-03-22T11:25:33;-11298.94;;;-145.39;36.01
37078;BME280;22989;55.998;37.212;2023-03-22T11:30:58;-11298.94;;;-145.39;36.67
37078;BME280;22989;55.998;37.212;2023-03-22T11:33:28;-11298.94;;;-145.39;36.60
37078;BME280;22989;55.998;37.212;2023-03-22T11:35:56;-11298.94;;;-145.39;36.80
37078;BME280;22989;55.998;37.212;2023-03-22T11:38:28;-11298.94;;;-145.39;37.19
37078;BME280;22989;55.998;37.212;2023-03-22T11:41:07;-11298.94;;;-145.39;37.50
37078;BME280;22989;55.998;37.212;2023-03-22T11:46:21;-11298.94;;;-145.39;37.56
37078;BME280;22989;55.998;37.212;2023-03-22T11:48:49;-11298.94;;;-145.39;37.58
37078;BME280;22989;55.998;37.212;2023-03-22T11:51:24;-11298.94;;;-145.39;37.45
37078;BME280;22989;55.998;37.212;2023-03-22T11:53:54;-11298.94;;;-145.39;37.36
37078;BME280;22989;55.998;37.212;2023-03-22T11:56:26;-11298.94;;;-145.39;37.52
37078;BME280;22989;55.998;37.212;2023-03-22T11:58:56;-11298.94;;;-145.39;37.62
37078;BME280;22989;55.998;37.212;2023-03-22T12:01:35;-11298.94;;;-145.39;37.94
37078;BME280;22989;55.998;37.212;2023-03-22T12:04:08;-11298.94;;;-145.39;37.97
37078;BME280;22989;55.998;37.212;2023-03-22T12:06:37;-11298.94;;;-145.39;38.08
37078;BME280;22989;55.998;37.212;2023-03-22T12:12:01;-11298.94;;;-145.39;38.47
37078;BME280;22989;55.998;37.212;2023-03-22T12:14:32;-11298.94;;;-145.39;38.62
37078;BME280;22989;55.998;37.212;2023-03-22T12:17:05;-11298.94;;;-145.39;38.69
37078;BME280;22989;55.998;37.212;2023-03-22T12:19:52;-11298.94;;;-145.39;38.61
37078;BME280;22989;55.998;37.212;2023-03-22T12:22:28;-11298.94;;;-145.39;38.71
37078;BME280;22989;55.998;37.212;2023-03-22T12:24:55;-11298.94;;;-145.39;38.75
37078;BME280;22989;55.998;37.212;2023-03-22T12:27:29;-11298.94;;;-145.39;38.80
37078;BME280;22989;55.998;37.212;2023-03-22T12:30:00;-11298.94;;;-145.39;39.00
37078;BME280;22989;55.998;37.212;2023-03-22T12:32:32;-11298.94;;;-145.39;39.30
37078;BME280;22989;55.998;37.212;2023-03-22T12:34:58;-11298.94;;;-145.39;39.44
37078;BME280;22989;55.998;37.212;2023-03-22T12:37:31;-11298.94;;;-145.39;39.68
37078;BME280;22989;55.998;37.212;2023-03-22T12:40:02;-11298.94;;;-145.39;39.73
37078;BME280;22989;55.998;37.212;2023-03-22T12:42:56;-11298.94;;;-145.39;39.78
37078;BME280;22989;55.998;37.212;2023-03-22T12:45:26;-11298.94;;;-145.39;39.89
37078;BME280;22989;55.998;37.212;2023-03-22T12:48:02;-11298.94;;;-145.39;40.01
37078;BME280;22989;55.998;37.212;2023-03-22T12:50:35;-11298.94;;;-145.39;39.89
37078;BME280;22989;55.998;37.212;2023-03-22T12:53:02;-11298.94;;;-145.39;39.93
37078;BME280;22989;55.998;37.212;2023-03-22T12:55:37;-11298.94;;;-145.39;39.87
37078;BME280;22989;55.998;37.212;2023-03-22T12:58:08;-11298.94;;;-145.39;40.02
37078;BME280;22989;55.998;37.212;2023-03-22T13:00:42;-11298.94;;;-145.39;40.11
37078;BME280;22989;55.998;37.212;2023-03-22T13:05:48;-11298.94;;;-145.39;40.25
37078;BME280;22989;55.998;37.212;2023-03-22T13:08:21;-11298.94;;;-145.39;40.44
37078;BME280;22989;55.998;37.212;2023-03-22T13:11:15;-11298.94;;;-145.39;40.67
37078;BME280;22989;55.998;37.212;2023-03-22T13:13:46;-11298.94;;;-145.39;40.76
37078;BME280;22989;55.998;37.212;2023-03-22T13:16:13;-11298.94;;;-145.39;40.54
37078;BME280;22989;55.998;37.212;2023-03-22T13:21:15;-11298.94;;;-145.39;40.30
37078;BME280;22989;55.998;37.212;2023-03-22T13:29:00;-11298.94;;;-145.39;39.67
37078;BME280;22989;55.998;37.212;2023-03-22T13:31:39;-11298.94;;;-145.39;39.39
37078;BME280;22989;55.998;37.212;2023-03-22T13:34:18;-11298.94;;;-145.39;38.87
37078;BME280;22989;55.998;37.212;2023-03-22T13:36:49;-11298.94;;;-145.39;38.86
37078;BME280;22989;55.998;37.212;2023-03-22T13:39:16;-11298.94;;;-145.39;38.08
37078;BME280;22989;55.998;37.212;2023-03-22T13:41:46;-11298.94;;;-145.39;37.75
37078;BME280;22989;55.998;37.212;2023-03-22T13:44:27;-11298.94;;;-145.39;37.66